Time;durP1;ratioP1;P1;durP2;ratioP2;P2;SDS_P1;SDS_P2;PMS_P1;PMS_P2;Temp;Humidity;BMP_temperature;BMP_pressure;BME280_temperature;BME280_humidity;BME280_pressure;Samples;Min_cycle;Max_cycle;Signal;HPM_P1;HPM_P2
2022/01/07 00:00:52;;;;;;;2.90;1.83;;;0.10;99.90;;;;;;5014108;28;20653;-69
2022/01/07 00:03:18;;;;;;;15.83;2.53;;;0.10;99.90;;;;;;5014221;28;20171;-69
2022/01/07 00:05:44;;;;;;;20.90;2.73;;;0.10;99.90;;;;;;5014175;28;20490;-69
2022/01/07 00:08:10;;;;;;;3.20;1.90;;;0.00;99.90;;;;;;5014114;28;20504;-69
2022/01/07 00:10:35;;;;;;;1.80;1.70;;;0.00;99.90;;;;;;5013998;28;20429;-69
2022/01/07 00:13:01;;;;;;;1.10;1.10;;;-0.10;99.90;;;;;;5013960;28;20172;-69
2022/01/07 00:15:27;;;;;;;1.30;1.20;;;-0.10;99.90;;;;;;5012565;28;21072;-70
2022/01/07 00:17:53;;;;;;;2.93;2.27;;;-0.10;99.90;;;;;;5014142;28;20173;-69
2022/01/07 00:20:19;;;;;;;1.50;1.40;;;-0.10;99.90;;;;;;5013524;28;20423;-70
2022/01/07 00:22:47;;;;;;;44.20;2.20;;;0.00;99.90;;;;;;5014220;28;20631;-70
2022/01/07 00:25:13;;;;;;;1.73;1.30;;;0.00;99.90;;;;;;5012758;28;20410;-70
2022/01/07 00:27:39;;;;;;;2.17;2.03;;;0.00;99.90;;;;;;5013958;28;20510;-70
2022/01/07 00:30:09;;;;;;;1.30;1.20;;;0.10;99.90;;;;;;5013755;28;20430;-70
2022/01/07 00:32:35;;;;;;;2.47;2.27;;;0.00;99.90;;;;;;5013564;28;20442;-69
2022/01/07 00:35:00;;;;;;;1.37;1.30;;;-0.10;99.90;;;;;;5013558;28;20516;-69
2022/01/07 00:37:26;;;;;;;2.30;1.90;;;0.00;99.90;;;;;;5013707;28;20969;-69
2022/01/07 00:39:52;;;;;;;2.67;2.03;;;0.00;99.90;;;;;;5013622;28;20744;-69
2022/01/07 00:42:18;;;;;;;3.90;1.53;;;0.00;99.90;;;;;;5013247;28;20172;-69
2022/01/07 00:44:43;;;;;;;6.30;1.67;;;0.00;99.90;;;;;;5013412;28;20423;-69
2022/01/07 00:47:09;;;;;;;4.60;2.80;;;0.00;99.90;;;;;;5013447;28;20164;-69
2022/01/07 00:49:34;;;;;;;1.33;1.17;;;0.00;99.90;;;;;;5011400;28;20290;-69
2022/01/07 00:52:01;;;;;;;3.40;3.00;;;-0.10;99.90;;;;;;5013194;28;20176;-71
2022/01/07 00:54:27;;;;;;;3.23;2.93;;;0.00;99.90;;;;;;5013207;28;20203;-69
2022/01/07 00:56:53;;;;;;;2.70;1.90;;;0.00;99.90;;;;;;5013328;28;20403;-69
2022/01/07 00:59:18;;;;;;;3.90;2.20;;;0.00;99.90;;;;;;5013221;28;20969;-69
2022/01/07 01:01:44;;;;;;;2.70;2.33;;;0.00;99.90;;;;;;5013308;28;20164;-70
2022/01/07 01:04:10;;;;;;;1.40;1.30;;;0.00;99.90;;;;;;5013159;28;20183;-69
2022/01/07 01:06:36;;;;;;;5.43;2.13;;;0.00;99.90;;;;;;5012912;28;20176;-69
2022/01/07 01:09:01;;;;;;;1.50;1.40;;;0.00;99.90;;;;;;5012869;28;20233;-70
2022/01/07 01:11:27;;;;;;;1.50;1.40;;;0.00;99.90;;;;;;5013472;28;20494;-69
2022/01/07 01:13:52;;;;;;;1.40;1.30;;;0.00;99.90;;;;;;5013037;28;20196;-69
2022/01/07 01:16:18;;;;;;;1.20;1.10;;;0.00;99.90;;;;;;5013116;28;20585;-69
2022/01/07 01:18:43;;;;;;;5.60;1.90;;;0.00;99.90;;;;;;5013045;28;20272;-69
2022/01/07 01:21:09;;;;;;;1.60;1.50;;;0.00;99.90;;;;;;5013059;28;20172;-70
2022/01/07 01:23:34;;;;;;;1.50;1.40;;;0.00;99.90;;;;;;5012978;28;20275;-70
2022/01/07 01:26:00;;;;;;;1.73;1.40;;;0.00;99.90;;;;;;5013075;28;20176;-69
2022/01/07 01:28:26;;;;;;;2.40;0.97;;;-0.10;99.90;;;;;;5012910;28;20200;-69
2022/01/07 01:30:52;;;;;;;1.60;1.50;;;0.00;99.90;;;;;;5011905;28;20438;-69
2022/01/07 01:33:18;;;;;;;4.00;1.77;;;-0.10;99.90;;;;;;5012889;28;20270;-70
2022/01/07 01:35:44;;;;;;;1.30;1.20;;;-0.20;99.90;;;;;;5012874;28;20307;-70
2022/01/07 01:38:10;;;;;;;6.00;1.70;;;-0.10;99.90;;;;;;5012915;28;20880;-70
2022/01/07 01:40:36;;;;;;;3.53;1.80;;;-0.10;99.90;;;;;;5012655;28;20479;-70
2022/01/07 01:43:02;;;;;;;2.87;2.07;;;-0.20;99.90;;;;;;5012284;28;20164;-70
2022/01/07 01:45:28;;;;;;;9.23;1.93;;;-0.20;99.90;;;;;;5012647;28;20208;-70
2022/01/07 01:47:54;;;;;;;1.60;1.50;;;-0.30;99.90;;;;;;5012541;28;20558;-69
2022/01/07 01:50:20;;;;;;;2.47;2.00;;;-0.20;99.90;;;;;;5012448;28;20378;-71
2022/01/07 01:52:48;;;;;;;1.87;1.17;;;-0.10;99.90;;;;;;5012974;28;20418;-69
2022/01/07 01:55:16;;;;;;;1.67;1.57;;;-0.20;99.90;;;;;;5011018;28;20459;-69
2022/01/07 01:57:42;;;;;;;2.40;1.90;;;-0.10;99.90;;;;;;5012416;28;20423;-70
2022/01/07 02:00:09;;;;;;;3.40;2.60;;;-0.10;99.90;;;;;;5011231;28;20455;-69
2022/01/07 02:02:35;;;;;;;3.57;1.73;;;-0.10;99.90;;;;;;5012278;28;20176;-69
2022/01/07 02:05:00;;;;;;;1.73;1.47;;;-0.10;99.90;;;;;;5012070;28;20407;-71
2022/01/07 02:07:27;;;;;;;2.00;1.90;;;-0.10;99.90;;;;;;5011100;28;20423;-70
2022/01/07 02:09:54;;;;;;;1.43;1.33;;;-0.10;99.90;;;;;;5012013;28;20239;-70
2022/01/07 02:12:20;;;;;;;4.33;1.97;;;-0.10;99.90;;;;;;5011931;28;20411;-70
2022/01/07 02:14:53;;;;;;;2.33;2.13;;;-0.20;99.90;;;;;;5012038;28;20462;-70
2022/01/07 02:17:20;;;;;;;8.00;2.30;;;-0.20;99.90;;;;;;5011841;28;20172;-70
2022/01/07 02:19:45;;;;;;;2.20;1.77;;;-0.20;99.90;;;;;;5008899;28;20447;-69
2022/01/07 02:22:12;;;;;;;2.53;2.30;;;-0.30;99.90;;;;;;4995563;28;20432;-69
2022/01/07 02:24:38;;;;;;;2.73;1.87;;;-0.30;99.90;;;;;;4992206;28;20251;-69
2022/01/07 02:27:06;;;;;;;3.67;2.23;;;-0.30;99.90;;;;;;4992738;28;20880;-69
2022/01/07 02:29:31;;;;;;;3.17;1.93;;;-0.30;99.90;;;;;;4994529;28;20268;-69
2022/01/07 02:31:57;;;;;;;6.13;2.40;;;-0.30;99.90;;;;;;4994047;28;20467;-70
2022/01/07 02:34:23;;;;;;;2.20;2.10;;;-0.30;99.90;;;;;;4992635;28;20196;-70
2022/01/07 02:36:48;;;;;;;3.37;1.90;;;-0.30;99.90;;;;;;4992474;28;20229;-70
2022/01/07 02:39:14;;;;;;;1.53;1.40;;;-0.30;99.90;;;;;;4992018;28;20199;-70
2022/01/07 02:41:39;;;;;;;3.43;1.20;;;-0.30;99.90;;;;;;4992546;28;20173;-70
2022/01/07 02:44:05;;;;;;;1.53;1.43;;;-0.40;99.90;;;;;;4996204;28;20252;-70
2022/01/07 02:46:30;;;;;;;2.87;2.67;;;-0.40;99.90;;;;;;4995984;28;20189;-70
2022/01/07 02:48:57;;;;;;;2.33;2.20;;;-0.40;99.90;;;;;;4995940;28;20176;-70
2022/01/07 02:51:22;;;;;;;3.20;2.77;;;-0.40;99.90;;;;;;4996210;28;20188;-70
2022/01/07 02:53:48;;;;;;;2.80;2.60;;;-0.20;99.90;;;;;;4994668;28;20452;-70
2022/01/07 02:56:13;;;;;;;2.10;1.50;;;-0.20;99.90;;;;;;4996123;28;20177;-70
2022/01/07 02:58:39;;;;;;;2.40;1.40;;;-0.20;99.90;;;;;;4995950;28;20657;-70
2022/01/07 03:01:04;;;;;;;3.23;2.03;;;-0.20;99.90;;;;;;4995901;28;20215;-70
2022/01/07 03:03:30;;;;;;;3.10;2.80;;;-0.20;99.90;;;;;;4994461;28;20185;-70
2022/01/07 03:05:55;;;;;;;2.60;1.53;;;-0.20;99.90;;;;;;4995621;28;20184;-70
2022/01/07 03:08:21;;;;;;;3.07;2.77;;;-0.20;99.90;;;;;;4995641;28;20676;-70
2022/01/07 03:10:46;;;;;;;2.43;1.57;;;-0.20;99.90;;;;;;4995701;28;20200;-70
2022/01/07 03:13:12;;;;;;;3.03;2.80;;;-0.30;99.90;;;;;;4995690;28;20283;-70
2022/01/07 03:15:38;;;;;;;1.60;1.50;;;-0.30;99.90;;;;;;4995592;28;20169;-70
2022/01/07 03:18:08;;;;;;;2.30;2.13;;;-0.20;99.90;;;;;;4995586;28;20172;-70
2022/01/07 03:20:38;;;;;;;2.30;1.40;;;-0.30;99.90;;;;;;4995639;28;20436;-70
2022/01/07 03:23:10;;;;;;;2.13;1.70;;;-0.20;99.90;;;;;;4995530;28;20431;-70
2022/01/07 03:25:36;;;;;;;2.00;1.33;;;-0.20;99.90;;;;;;4995356;28;20455;-70
2022/01/07 03:28:02;;;;;;;10.73;2.27;;;-0.20;99.90;;;;;;4995320;28;20836;-70
2022/01/07 03:30:27;;;;;;;7.70;1.57;;;-0.20;99.90;;;;;;4995193;28;20191;-70
2022/01/07 03:32:53;;;;;;;4.47;1.90;;;-0.20;99.90;;;;;;4994906;28;20416;-70
2022/01/07 03:35:18;;;;;;;4.83;2.40;;;-0.20;99.90;;;;;;4995024;28;20228;-68
2022/01/07 03:37:44;;;;;;;2.67;1.43;;;-0.30;99.90;;;;;;4995080;28;20169;-69
2022/01/07 03:40:12;;;;;;;1.40;1.10;;;-0.30;99.90;;;;;;4994993;28;20196;-70
2022/01/07 03:42:38;;;;;;;3.17;2.40;;;-0.30;99.90;;;;;;4994893;28;20409;-70
2022/01/07 03:45:05;;;;;;;8.43;2.27;;;-0.30;99.90;;;;;;4994965;28;20434;-70
2022/01/07 03:47:31;;;;;;;2.23;1.83;;;-0.30;99.90;;;;;;4994763;28;20498;-70
2022/01/07 03:49:56;;;;;;;8.57;1.80;;;-0.40;99.90;;;;;;4993522;28;20574;-70
2022/01/07 03:52:22;;;;;;;6.60;2.37;;;-0.40;99.90;;;;;;4994762;28;20539;-70
2022/01/07 03:54:48;;;;;;;1.60;1.50;;;-0.30;99.90;;;;;;4993777;28;20215;-70
2022/01/07 03:57:13;;;;;;;13.60;1.73;;;-0.30;99.90;;;;;;4994846;28;20165;-70
2022/01/07 03:59:39;;;;;;;2.10;2.00;;;-0.30;99.90;;;;;;4994576;28;20447;-70
2022/01/07 04:02:04;;;;;;;2.77;1.33;;;-0.30;99.90;;;;;;4993460;28;20176;-70
2022/01/07 04:04:30;;;;;;;2.67;2.30;;;-0.30;99.90;;;;;;4995097;28;20176;-70
2022/01/07 04:06:55;;;;;;;4.20;1.60;;;-0.30;99.90;;;;;;4994682;28;20169;-70
2022/01/07 04:09:21;;;;;;;3.33;3.13;;;-0.30;99.90;;;;;;4994342;28;20193;-70
2022/01/07 04:11:46;;;;;;;1.47;1.37;;;-0.30;99.90;;;;;;4993081;28;20698;-70
2022/01/07 04:14:12;;;;;;;3.40;2.03;;;-0.30;99.90;;;;;;4993987;28;20277;-70
2022/01/07 04:16:37;;;;;;;3.43;1.67;;;-0.20;99.90;;;;;;4993826;28;20272;-70
2022/01/07 04:19:03;;;;;;;2.17;2.07;;;-0.30;99.90;;;;;;4994309;28;20197;-70
2022/01/07 04:21:28;;;;;;;1.83;1.70;;;-0.20;99.90;;;;;;4993254;28;20260;-70
2022/01/07 04:23:53;;;;;;;2.90;2.70;;;-0.20;99.90;;;;;;4994216;28;20813;-70
2022/01/07 04:26:19;;;;;;;2.43;1.23;;;-0.20;99.90;;;;;;4994216;28;20523;-70
2022/01/07 04:28:44;;;;;;;3.20;2.90;;;-0.20;99.90;;;;;;4994063;28;20166;-70
2022/01/07 04:31:10;;;;;;;4.50;2.23;;;-0.20;99.90;;;;;;4994112;28;20242;-70
2022/01/07 04:33:36;;;;;;;2.70;1.83;;;-0.20;99.90;;;;;;4993999;28;20667;-70
2022/01/07 04:36:02;;;;;;;1.87;1.47;;;-0.20;99.90;;;;;;4992866;28;20203;-69
2022/01/07 04:38:28;;;;;;;1.77;1.67;;;-0.10;99.90;;;;;;4994021;28;20536;-69
2022/01/07 04:40:53;;;;;;;1.93;1.70;;;-0.10;99.90;;;;;;4993932;28;20421;-69
2022/01/07 04:43:19;;;;;;;3.80;1.77;;;0.00;99.90;;;;;;4992610;28;20942;-69
2022/01/07 04:45:45;;;;;;;7.17;2.73;;;0.00;99.90;;;;;;4992493;28;20259;-70
2022/01/07 04:48:10;;;;;;;1.53;1.43;;;0.00;99.90;;;;;;4994052;28;20589;-70
2022/01/07 04:50:37;;;;;;;1.60;1.50;;;0.00;99.90;;;;;;4994087;28;20539;-70
2022/01/07 04:53:03;;;;;;;5.50;2.63;;;0.00;99.90;;;;;;4995120;28;20161;-70
2022/01/07 04:55:36;;;;;;;3.10;2.90;;;0.00;99.90;;;;;;4995030;28;20459;-71
2022/01/07 04:58:02;;;;;;;2.90;1.80;;;0.00;99.90;;;;;;4993779;28;20403;-70
2022/01/07 05:00:28;;;;;;;2.00;1.90;;;0.10;99.90;;;;;;5035638;23;20520;-73
2022/01/07 05:02:53;;;;;;;2.03;1.87;;;0.10;99.90;;;;;;5043694;28;20406;-73
2022/01/07 05:05:19;;;;;;;9.20;2.50;;;0.10;99.90;;;;;;5043881;28;20654;-74
2022/01/07 05:07:45;;;;;;;1.57;1.47;;;0.00;99.90;;;;;;5043984;28;20234;-73
2022/01/07 05:10:13;;;;;;;2.50;2.00;;;0.10;99.90;;;;;;5044487;28;20539;-73
2022/01/07 05:12:38;;;;;;;1.73;1.60;;;0.10;99.90;;;;;;5044448;28;20172;-73
2022/01/07 05:15:05;;;;;;;1.77;1.67;;;0.10;99.90;;;;;;5042836;28;20464;-72
2022/01/07 05:17:31;;;;;;;1.90;1.80;;;0.10;99.90;;;;;;5045809;28;20171;-74
2022/01/07 05:19:56;;;;;;;2.73;2.63;;;0.20;99.90;;;;;;5045941;28;20429;-73
2022/01/07 05:22:22;;;;;;;3.67;2.33;;;0.20;99.90;;;;;;5044630;28;20410;-72
2022/01/07 05:24:48;;;;;;;1.63;1.53;;;0.20;99.90;;;;;;5044680;28;20184;-74
2022/01/07 05:27:13;;;;;;;2.00;1.80;;;0.20;99.90;;;;;;5044754;28;20190;-74
2022/01/07 05:29:39;;;;;;;3.33;1.97;;;0.20;99.90;;;;;;5044098;28;20195;-74
2022/01/07 05:32:05;;;;;;;2.00;1.80;;;0.20;99.90;;;;;;5043732;28;20195;-73
2022/01/07 05:34:31;;;;;;;1.93;1.73;;;0.20;99.90;;;;;;5043929;28;20214;-74
2022/01/07 05:36:57;;;;;;;1.70;1.40;;;0.20;99.90;;;;;;5044005;28;20402;-72
2022/01/07 05:39:23;;;;;;;2.17;1.97;;;0.20;99.90;;;;;;5044081;28;20449;-74
2022/01/07 05:41:48;;;;;;;1.80;1.70;;;0.20;99.90;;;;;;5044547;28;20199;-74
2022/01/07 05:44:14;;;;;;;2.03;1.80;;;0.20;99.90;;;;;;5043848;28;20406;-74
2022/01/07 05:46:39;;;;;;;2.47;1.70;;;0.20;99.90;;;;;;5043825;28;20309;-74
2022/01/07 05:49:04;;;;;;;1.57;1.47;;;0.20;99.90;;;;;;5042965;28;20175;-73
2022/01/07 05:51:30;;;;;;;2.83;2.37;;;0.30;99.90;;;;;;5043264;28;20179;-76
2022/01/07 05:53:56;;;;;;;3.07;1.83;;;0.30;99.90;;;;;;5042212;28;20284;-77
2022/01/07 05:56:21;;;;;;;2.10;2.00;;;0.30;99.90;;;;;;5042989;28;20172;-71
2022/01/07 05:58:46;;;;;;;5.00;1.77;;;0.30;99.90;;;;;;5043756;28;20708;-74
2022/01/07 06:01:12;;;;;;;3.33;2.13;;;0.30;99.90;;;;;;5044262;28;20233;-74
2022/01/07 06:03:38;;;;;;;2.23;2.13;;;0.20;99.90;;;;;;5043698;28;20171;-74
2022/01/07 06:06:04;;;;;;;1.67;1.57;;;0.30;99.90;;;;;;5043779;28;20650;-75
2022/01/07 06:08:29;;;;;;;2.47;1.73;;;0.30;99.90;;;;;;5044144;28;20466;-74
2022/01/07 06:10:55;;;;;;;1.90;1.77;;;0.30;99.90;;;;;;5031798;28;20212;-75
2022/01/07 06:13:21;;;;;;;2.07;1.63;;;0.40;99.90;;;;;;5023272;28;20376;-73
2022/01/07 06:15:46;;;;;;;1.90;1.80;;;0.40;99.90;;;;;;5023593;28;20554;-75
2022/01/07 06:18:12;;;;;;;1.53;1.40;;;0.40;99.90;;;;;;5023256;28;20215;-75
2022/01/07 06:20:37;;;;;;;6.90;2.43;;;0.40;99.90;;;;;;5023078;28;20188;-75
2022/01/07 06:23:03;;;;;;;2.20;2.00;;;0.40;99.90;;;;;;5023296;28;20176;-75
2022/01/07 06:25:28;;;;;;;2.60;1.80;;;0.40;99.90;;;;;;5022907;28;20179;-73
2022/01/07 06:27:54;;;;;;;2.30;2.10;;;0.40;99.90;;;;;;5023592;28;20176;-73
2022/01/07 06:30:20;;;;;;;1.87;1.73;;;0.40;99.90;;;;;;5023256;28;20200;-71
2022/01/07 06:32:46;;;;;;;2.77;2.47;;;0.40;99.90;;;;;;5023572;28;20168;-74
2022/01/07 06:35:11;;;;;;;5.20;2.03;;;0.40;99.90;;;;;;5022933;28;20687;-74
2022/01/07 06:37:38;;;;;;;1.50;1.40;;;0.40;99.90;;;;;;5021931;28;20176;-74
2022/01/07 06:40:05;;;;;;;1.40;1.30;;;0.40;99.90;;;;;;5023401;28;20203;-74
2022/01/07 06:42:31;;;;;;;1.97;1.63;;;0.40;99.90;;;;;;5024180;28;20800;-73
2022/01/07 06:44:57;;;;;;;2.40;2.20;;;0.40;99.90;;;;;;5023558;28;20411;-73
2022/01/07 06:47:23;;;;;;;1.50;1.40;;;0.40;99.90;;;;;;5023637;28;20789;-73
2022/01/07 06:49:48;;;;;;;2.03;1.10;;;0.40;99.90;;;;;;5039350;28;20449;-74
2022/01/07 06:52:14;;;;;;;5.43;2.00;;;0.40;99.90;;;;;;5024081;28;20180;-74
2022/01/07 06:54:39;;;;;;;1.47;1.37;;;0.40;99.90;;;;;;5023074;28;20307;-75
2022/01/07 06:57:05;;;;;;;3.30;1.63;;;0.40;99.90;;;;;;5023632;28;20181;-72
2022/01/07 06:59:30;;;;;;;3.80;1.50;;;0.40;99.90;;;;;;5022602;28;20255;-72
2022/01/07 07:01:56;;;;;;;4.60;1.63;;;0.40;99.90;;;;;;5037944;28;20252;-75
2022/01/07 07:04:21;;;;;;;4.33;1.73;;;0.40;99.90;;;;;;5043820;28;20179;-74
2022/01/07 07:06:47;;;;;;;2.00;1.90;;;0.40;99.90;;;;;;5042976;28;20168;-73
2022/01/07 07:09:12;;;;;;;3.23;1.53;;;0.50;99.90;;;;;;5043786;28;20175;-74
2022/01/07 07:11:39;;;;;;;1.53;0.93;;;0.50;99.90;;;;;;5043218;28;20222;-73
2022/01/07 07:14:05;;;;;;;3.23;2.97;;;0.40;99.90;;;;;;5043434;28;20195;-73
2022/01/07 07:16:31;;;;;;;7.37;2.87;;;0.50;99.90;;;;;;5041756;28;20541;-75
2022/01/07 07:18:56;;;;;;;4.40;2.20;;;0.50;99.90;;;;;;5041811;28;20175;-74
2022/01/07 07:21:22;;;;;;;1.00;0.90;;;0.50;99.90;;;;;;5042474;28;20173;-73
2022/01/07 07:23:47;;;;;;;1.67;1.57;;;0.50;99.90;;;;;;5043341;28;20182;-73
2022/01/07 07:26:13;;;;;;;2.23;2.13;;;0.50;99.90;;;;;;5045059;28;20699;-74
2022/01/07 07:28:39;;;;;;;9.30;2.00;;;0.50;99.90;;;;;;5045314;28;20251;-74
2022/01/07 07:31:09;;;;;;;1.93;1.83;;;0.50;99.90;;;;;;5047783;28;20291;-73
2022/01/07 07:36:27;;;;;;;2.50;1.23;;;0.60;99.90;;;;;;5047360;28;20417;-74
2022/01/07 07:38:53;;;;;;;1.53;1.43;;;0.60;99.90;;;;;;5048108;28;20969;-74
2022/01/07 07:41:19;;;;;;;8.93;2.67;;;0.60;99.90;;;;;;5048791;28;20444;-74
2022/01/07 07:43:47;;;;;;;1.73;1.63;;;0.70;99.90;;;;;;5046486;28;20422;-73
2022/01/07 07:46:13;;;;;;;2.60;1.50;;;0.80;99.90;;;;;;5046321;28;20168;-74
2022/01/07 07:48:39;;;;;;;1.67;1.27;;;0.80;99.90;;;;;;5047203;28;20411;-74
2022/01/07 07:51:04;;;;;;;1.70;1.60;;;0.80;99.90;;;;;;5047057;28;20442;-72
2022/01/07 07:53:30;;;;;;;1.83;1.60;;;0.80;99.90;;;;;;5045573;28;20262;-74
2022/01/07 07:55:55;;;;;;;2.73;1.00;;;0.80;99.90;;;;;;5045687;28;20183;-74
2022/01/07 07:58:22;;;;;;;7.63;2.40;;;0.90;99.90;;;;;;5047105;28;20203;-73
2022/01/07 08:00:47;;;;;;;2.80;1.97;;;0.90;99.90;;;;;;5047166;28;20210;-74
2022/01/07 08:03:13;;;;;;;3.83;3.17;;;0.90;99.90;;;;;;5046636;28;20509;-73
2022/01/07 08:05:39;;;;;;;3.23;3.03;;;0.90;99.90;;;;;;5046617;28;20199;-72
2022/01/07 08:08:05;;;;;;;4.00;1.70;;;0.90;99.90;;;;;;5046752;28;20440;-71
2022/01/07 08:10:31;;;;;;;2.10;1.00;;;0.90;99.90;;;;;;5045397;28;20443;-72
2022/01/07 08:18:22;;;;;;;1.73;1.63;;;0.90;99.90;;;;;;5026711;28;20404;-73
2022/01/07 08:20:48;;;;;;;3.53;3.23;;;0.90;99.90;;;;;;5030797;28;20529;-72
2022/01/07 08:23:14;;;;;;;2.73;2.53;;;0.90;99.90;;;;;;5026703;28;20407;-74
2022/01/07 08:25:39;;;;;;;1.83;1.47;;;1.00;99.90;;;;;;5030444;28;20270;-73
2022/01/07 08:28:06;;;;;;;1.77;1.67;;;1.00;99.90;;;;;;5044162;28;20179;-74
2022/01/07 08:30:37;;;;;;;1.37;1.17;;;1.00;99.90;;;;;;5053262;28;20256;-73
2022/01/07 08:35:50;;;;;;;7.13;3.30;;;1.10;99.90;;;;;;5036417;28;20449;-74
2022/01/07 08:38:15;;;;;;;10.07;1.50;;;1.20;99.90;;;;;;5037182;28;20410;-72
2022/01/07 08:40:41;;;;;;;1.63;1.53;;;1.20;99.90;;;;;;5039820;28;20210;-72
2022/01/07 08:43:08;;;;;;;1.30;1.23;;;1.20;99.90;;;;;;5037255;28;20175;-73
2022/01/07 08:45:34;;;;;;;1.67;1.43;;;1.30;99.90;;;;;;5037982;28;20195;-74
2022/01/07 08:47:59;;;;;;;1.90;1.70;;;1.30;99.90;;;;;;5037523;28;20427;-73
2022/01/07 08:50:25;;;;;;;5.87;2.80;;;1.30;99.90;;;;;;5037854;28;20230;-73
2022/01/07 08:52:52;;;;;;;4.00;2.40;;;1.30;99.90;;;;;;5036135;28;20274;-74
2022/01/07 08:55:18;;;;;;;8.33;1.87;;;1.40;99.90;;;;;;5037287;28;20488;-75
2022/01/07 08:57:43;;;;;;;3.53;3.33;;;1.40;99.90;;;;;;5037026;28;20426;-75
2022/01/07 09:00:10;;;;;;;1.43;1.30;;;1.40;99.90;;;;;;5017108;28;20295;-74
2022/01/07 09:02:35;;;;;;;2.30;1.60;;;1.40;99.90;;;;;;5033433;28;20179;-74
2022/01/07 09:05:00;;;;;;;2.80;2.20;;;1.50;99.90;;;;;;5036394;28;20471;-73
2022/01/07 09:07:26;;;;;;;3.00;2.43;;;1.60;99.90;;;;;;5037136;28;20164;-74
2022/01/07 09:09:51;;;;;;;1.33;1.23;;;1.60;99.90;;;;;;5036956;28;20191;-74
2022/01/07 09:12:17;;;;;;;4.97;1.90;;;1.60;99.90;;;;;;5031235;28;20194;-73
2022/01/07 09:14:43;;;;;;;7.27;2.13;;;1.70;99.90;;;;;;5038291;28;20196;-74
2022/01/07 09:17:08;;;;;;;2.70;1.90;;;1.70;99.90;;;;;;5038156;28;20426;-72
2022/01/07 09:19:34;;;;;;;1.70;1.60;;;1.80;99.90;;;;;;5037766;28;20206;-73
2022/01/07 09:21:59;;;;;;;1.77;1.50;;;1.80;99.90;;;;;;5037697;28;20237;-75
2022/01/07 09:24:26;;;;;;;3.80;2.03;;;1.90;99.90;;;;;;5037243;28;20512;-73
2022/01/07 09:26:53;;;;;;;2.20;2.00;;;2.00;99.90;;;;;;5037944;28;20186;-74
2022/01/07 09:29:22;;;;;;;3.90;1.80;;;2.00;99.90;;;;;;5039276;28;20488;-74
2022/01/07 09:31:47;;;;;;;2.13;1.83;;;2.00;99.90;;;;;;5040936;28;20537;-73
2022/01/07 09:34:13;;;;;;;4.93;1.93;;;2.10;99.90;;;;;;5040706;28;20477;-72
2022/01/07 09:36:38;;;;;;;7.70;5.27;;;2.20;99.90;;;;;;5040176;28;20175;-73
2022/01/07 09:39:04;;;;;;;3.30;2.23;;;2.20;99.90;;;;;;5041235;28;20517;-73
2022/01/07 09:41:29;;;;;;;2.13;1.93;;;2.20;99.90;;;;;;5041514;28;20195;-71
2022/01/07 09:43:55;;;;;;;1.70;1.57;;;2.20;99.90;;;;;;5038945;28;20207;-74
2022/01/07 09:46:20;;;;;;;2.80;1.63;;;2.20;99.90;;;;;;5041775;28;20234;-73
2022/01/07 09:48:46;;;;;;;3.97;2.47;;;2.30;99.90;;;;;;5039638;28;20172;-74
2022/01/07 09:51:14;;;;;;;3.20;2.80;;;2.30;99.90;;;;;;5032150;28;20195;-71
2022/01/07 09:53:39;;;;;;;6.17;2.00;;;2.40;99.90;;;;;;5041167;28;20176;-74
2022/01/07 09:56:05;;;;;;;7.60;2.77;;;2.50;99.90;;;;;;5040233;28;20426;-73
2022/01/07 09:58:32;;;;;;;2.73;2.53;;;2.50;99.90;;;;;;5037895;28;20172;-72
2022/01/07 10:01:06;;;;;;;10.77;2.90;;;2.60;99.90;;;;;;5036492;28;20230;-76
2022/01/07 10:03:38;;;;;;;1.90;1.70;;;2.50;99.90;;;;;;5034988;28;20432;-76
2022/01/07 10:06:16;;;;;;;2.40;2.13;;;2.50;99.90;;;;;;5038640;28;20403;-75
2022/01/07 10:08:42;;;;;;;4.03;2.03;;;2.50;99.90;;;;;;5040834;28;20417;-73
2022/01/07 10:11:18;;;;;;;2.30;2.10;;;2.50;99.90;;;;;;5043152;28;20452;-74
2022/01/07 10:13:46;;;;;;;2.47;2.27;;;2.70;99.90;;;;;;5040579;28;20282;-74
2022/01/07 10:16:19;;;;;;;1.83;1.73;;;2.80;99.90;;;;;;5038328;28;20855;-74
2022/01/07 10:18:44;;;;;;;2.87;1.47;;;2.80;99.90;;;;;;5037362;28;20422;-74
2022/01/07 10:21:11;;;;;;;1.57;1.47;;;2.90;99.90;;;;;;5038542;28;20434;-74
2022/01/07 10:23:37;;;;;;;3.30;3.00;;;2.90;99.90;;;;;;5038978;28;20171;-74
2022/01/07 10:26:03;;;;;;;3.27;2.60;;;3.00;99.90;;;;;;5038594;28;20415;-73
2022/01/07 10:28:33;;;;;;;4.10;2.80;;;3.10;99.90;;;;;;5037598;28;20889;-76
2022/01/07 10:31:00;;;;;;;3.23;2.10;;;3.20;99.90;;;;;;5039047;28;20192;-73
2022/01/07 10:33:44;;;;;;;2.70;2.23;;;3.20;99.90;;;;;;5037537;28;20409;-76
2022/01/07 10:36:09;;;;;;;4.67;2.13;;;3.10;99.90;;;;;;5042612;28;20425;-73
2022/01/07 10:38:50;;;;;;;5.60;3.23;;;3.20;99.90;;;;;;5041972;28;20979;-71
2022/01/07 10:41:17;;;;;;;6.03;2.17;;;3.30;99.90;;;;;;5037413;28;20282;-74
2022/01/07 10:43:42;;;;;;;2.90;2.17;;;3.30;99.90;;;;;;5038827;28;20913;-73
2022/01/07 10:46:11;;;;;;;2.57;2.13;;;3.40;99.90;;;;;;5040112;28;20422;-73
2022/01/07 10:48:41;;;;;;;4.83;2.50;;;3.40;99.90;;;;;;5039770;28;20164;-75
2022/01/07 10:51:09;;;;;;;2.47;2.27;;;3.40;99.90;;;;;;5037666;28;20438;-74
2022/01/07 10:53:35;;;;;;;6.03;1.87;;;3.40;99.90;;;;;;5037535;28;20418;-73
2022/01/07 10:56:06;;;;;;;1.97;1.87;;;3.40;99.90;;;;;;5038542;28;20418;-74
2022/01/07 10:58:46;;;;;;;2.00;1.90;;;3.40;99.90;;;;;;5035696;28;20893;-72
2022/01/07 11:01:26;;;;;;;5.23;2.80;;;3.40;99.90;;;;;;5049331;28;20449;-72
2022/01/07 11:03:54;;;;;;;4.03;2.53;;;3.40;99.90;;;;;;5037585;28;20441;-73
2022/01/07 11:06:21;;;;;;;3.37;1.93;;;3.50;99.90;;;;;;5035682;28;20959;-73
2022/01/07 11:08:49;;;;;;;2.17;1.73;;;3.50;99.90;;;;;;5043587;28;20464;-74
2022/01/07 11:11:15;;;;;;;2.57;1.70;;;3.40;99.90;;;;;;5026911;28;20564;-74
2022/01/07 11:13:42;;;;;;;2.13;1.93;;;3.40;99.90;;;;;;5041244;28;20426;-74
2022/01/07 11:16:08;;;;;;;2.50;2.30;;;3.40;99.90;;;;;;5044170;28;20500;-74
2022/01/07 11:18:37;;;;;;;2.60;1.57;;;3.50;99.90;;;;;;5052147;23;20799;-68
2022/01/07 11:21:03;;;;;;;2.37;2.17;;;3.50;99.90;;;;;;5026894;28;20465;-70
2022/01/07 11:23:29;;;;;;;2.80;2.60;;;3.50;99.90;;;;;;5034545;28;20430;-69
2022/01/07 11:25:59;;;;;;;1.80;1.70;;;3.50;99.90;;;;;;5034663;28;20420;-70
2022/01/07 11:28:25;;;;;;;2.60;1.80;;;3.60;99.90;;;;;;5032469;28;20444;-68
2022/01/07 11:30:51;;;;;;;4.20;3.90;;;3.50;99.90;;;;;;5031513;28;20422;-70
2022/01/07 11:33:19;;;;;;;2.03;1.93;;;3.50;99.90;;;;;;5034647;28;20663;-70
2022/01/07 11:35:46;;;;;;;3.17;2.73;;;3.40;99.90;;;;;;5034304;28;20196;-70
2022/01/07 11:38:30;;;;;;;1.73;1.63;;;3.30;99.90;;;;;;5032933;28;20413;-71
2022/01/07 11:40:55;;;;;;;1.93;1.83;;;3.30;99.90;;;;;;5034507;28;20799;-70
2022/01/07 11:43:21;;;;;;;2.60;2.23;;;3.20;99.90;;;;;;5028079;28;20513;-70
2022/01/07 11:45:47;;;;;;;2.90;1.73;;;3.20;99.90;;;;;;5034125;28;20493;-72
2022/01/07 11:48:13;;;;;;;2.80;1.97;;;3.20;99.90;;;;;;5034354;28;20175;-71
2022/01/07 11:51:10;;;;;;;6.77;3.37;;;3.20;99.90;;;;;;5032137;28;20543;-71
2022/01/07 11:53:35;;;;;;;3.20;2.10;;;3.10;99.90;;;;;;5014606;28;20647;-71
2022/01/07 11:56:02;;;;;;;3.10;2.50;;;3.00;99.90;;;;;;5014801;28;20418;-71
2022/01/07 11:58:41;;;;;;;3.77;2.90;;;3.00;99.90;;;;;;5014733;28;20312;-71
2022/01/07 12:01:22;;;;;;;3.40;1.97;;;3.00;99.90;;;;;;5019266;28;20423;-69
2022/01/07 12:03:51;;;;;;;3.33;2.97;;;3.00;99.90;;;;;;5021838;28;20445;-70
2022/01/07 12:06:29;;;;;;;5.57;2.63;;;3.00;99.90;;;;;;5021779;28;20406;-69
2022/01/07 12:09:09;;;;;;;2.33;2.13;;;3.00;99.90;;;;;;5019198;28;20458;-70
2022/01/07 12:11:58;;;;;;;3.00;2.10;;;2.90;99.90;;;;;;5033920;28;20541;-68
2022/01/07 12:14:28;;;;;;;2.80;2.30;;;3.00;99.90;;;;;;5014210;28;20505;-69
2022/01/07 12:16:56;;;;;;;2.63;2.13;;;3.00;99.90;;;;;;5021757;28;20406;-68
2022/01/07 12:19:36;;;;;;;4.83;2.27;;;2.90;99.90;;;;;;5014596;28;20878;-68
2022/01/07 12:22:06;;;;;;;4.23;2.30;;;2.90;99.90;;;;;;5031160;28;20464;-68
2022/01/07 12:24:33;;;;;;;4.57;2.50;;;2.90;99.90;;;;;;5033740;28;20442;-68
2022/01/07 12:27:13;;;;;;;2.50;1.73;;;3.00;99.90;;;;;;5032868;28;20442;-68
2022/01/07 12:29:41;;;;;;;1.70;1.60;;;3.00;99.90;;;;;;5033830;28;20437;-68
2022/01/07 12:32:09;;;;;;;6.10;2.23;;;3.00;99.90;;;;;;5032420;28;20773;-68
2022/01/07 12:34:43;;;;;;;6.80;2.50;;;3.00;99.90;;;;;;5033708;28;20580;-68
2022/01/07 12:37:13;;;;;;;2.30;2.07;;;2.90;99.90;;;;;;5032240;28;20457;-68
2022/01/07 12:39:42;;;;;;;4.97;2.73;;;2.90;99.90;;;;;;5033149;28;20474;-69
2022/01/07 12:42:10;;;;;;;2.50;2.30;;;2.90;99.90;;;;;;5033852;28;20403;-68
2022/01/07 12:44:37;;;;;;;2.30;2.20;;;2.90;99.90;;;;;;5033675;28;20414;-69
2022/01/07 12:47:03;;;;;;;5.90;3.30;;;2.90;99.90;;;;;;5033586;28;20406;-69
2022/01/07 12:49:48;;;;;;;3.97;2.20;;;3.00;99.90;;;;;;5032816;28;20573;-69
2022/01/07 12:52:31;;;;;;;5.60;3.23;;;3.00;99.90;;;;;;5033487;28;20501;-68
2022/01/07 12:55:00;;;;;;;2.90;2.60;;;2.90;99.90;;;;;;5031814;28;20473;-68
2022/01/07 12:57:29;;;;;;;2.33;2.23;;;3.00;99.90;;;;;;5031453;28;20421;-68
2022/01/07 13:00:07;;;;;;;6.87;2.33;;;3.00;99.90;;;;;;5033134;28;20419;-68
2022/01/07 13:02:33;;;;;;;5.40;2.90;;;2.90;99.90;;;;;;5031722;28;20537;-68